Time;durP1;ratioP1;P1;durP2;ratioP2;P2;SDS_P1;SDS_P2;PMS_P1;PMS_P2;Temp;Humidity;BMP_temperature;BMP_pressure;BME280_temperature;BME280_humidity;BME280_pressure;Samples;Min_cycle;Max_cycle;Signal;HPM_P1;HPM_P2
2024/01/13 00:00:57;;;;;;;11.60;6.13;;;5.70;99.90;;;;;;4993996;28;20038;-25
2024/01/13 00:03:23;;;;;;;11.33;5.90;;;5.70;99.90;;;;;;4996369;28;20270;-22
2024/01/13 00:05:48;;;;;;;12.48;6.30;;;5.70;99.90;;;;;;4990536;28;20042;-22
2024/01/13 00:08:14;;;;;;;13.17;6.13;;;5.70;99.90;;;;;;4991534;28;20068;-22
2024/01/13 00:10:40;;;;;;;11.75;6.13;;;5.70;99.90;;;;;;4994086;28;20109;-23
2024/01/13 00:13:08;;;;;;;12.67;6.50;;;5.70;99.90;;;;;;4993465;28;20354;-23
2024/01/13 00:15:34;;;;;;;12.27;5.72;;;5.70;99.90;;;;;;4981439;28;20042;-21
2024/01/13 00:18:00;;;;;;;12.15;5.80;;;5.70;99.90;;;;;;4992504;28;20085;-20
2024/01/13 00:20:25;;;;;;;13.67;6.53;;;5.70;99.90;;;;;;4995067;28;20046;-22
2024/01/13 00:22:51;;;;;;;11.05;6.28;;;5.80;99.90;;;;;;4992180;28;20263;-20
2024/01/13 00:25:17;;;;;;;11.53;6.13;;;5.70;99.90;;;;;;4991952;28;20088;-20
2024/01/13 00:27:43;;;;;;;12.15;6.38;;;5.70;99.90;;;;;;4989845;28;20042;-20
2024/01/13 00:30:09;;;;;;;13.10;6.43;;;5.70;99.90;;;;;;4993818;28;20044;-19
2024/01/13 00:32:35;;;;;;;11.35;5.75;;;5.70;99.90;;;;;;4991307;28;20022;-21
2024/01/13 00:35:00;;;;;;;13.07;6.18;;;5.80;99.90;;;;;;4989876;28;20080;-22
2024/01/13 00:37:26;;;;;;;13.10;6.50;;;5.80;99.90;;;;;;4993646;28;20226;-21
2024/01/13 00:39:52;;;;;;;12.32;5.82;;;5.70;99.90;;;;;;4978719;28;20046;-20
2024/01/13 00:42:17;;;;;;;11.17;5.90;;;5.80;99.90;;;;;;4992573;28;20061;-19
2024/01/13 00:44:43;;;;;;;12.13;5.95;;;5.80;99.90;;;;;;4990379;28;20046;-19
2024/01/13 00:47:09;;;;;;;11.07;5.80;;;5.80;99.90;;;;;;4989709;28;20046;-19
2024/01/13 00:49:34;;;;;;;11.93;5.53;;;5.80;99.90;;;;;;4989077;28;20284;-19
2024/01/13 00:52:00;;;;;;;11.37;5.50;;;5.80;99.90;;;;;;4994185;28;20041;-19
2024/01/13 00:54:26;;;;;;;10.20;5.28;;;5.80;99.90;;;;;;4978178;28;20112;-22
2024/01/13 00:56:53;;;;;;;11.73;5.23;;;5.80;99.90;;;;;;4991313;28;20319;-19
2024/01/13 00:59:19;;;;;;;9.90;5.30;;;5.80;99.90;;;;;;4979277;28;20045;-20
2024/01/13 01:01:45;;;;;;;11.90;6.25;;;5.80;99.90;;;;;;4994148;28;20051;-20
2024/01/13 01:04:11;;;;;;;10.67;5.27;;;5.80;99.90;;;;;;4992497;28;20053;-19
2024/01/13 01:06:36;;;;;;;11.13;5.75;;;5.80;99.90;;;;;;4991997;28;20040;-20
2024/01/13 01:09:02;;;;;;;10.80;5.83;;;5.80;99.90;;;;;;4991476;28;20030;-21
2024/01/13 01:11:28;;;;;;;11.77;5.57;;;5.80;99.90;;;;;;4961746;28;20105;-20
2024/01/13 01:13:55;;;;;;;9.90;5.27;;;5.80;99.90;;;;;;4992983;28;20299;-19
2024/01/13 01:16:21;;;;;;;8.43;4.93;;;5.80;99.90;;;;;;4990547;28;20017;-19
2024/01/13 01:18:46;;;;;;;10.45;5.07;;;5.80;99.90;;;;;;4992756;28;20489;-19
2024/01/13 01:21:13;;;;;;;9.93;5.63;;;5.80;99.90;;;;;;4990015;28;20042;-20
2024/01/13 01:23:39;;;;;;;11.65;5.65;;;5.90;99.90;;;;;;4990579;28;20047;-20
2024/01/13 01:26:05;;;;;;;11.83;5.77;;;5.80;99.90;;;;;;4973412;28;20343;-22
2024/01/13 01:28:31;;;;;;;12.87;5.97;;;5.90;99.90;;;;;;4996581;28;20305;-22
2024/01/13 01:30:56;;;;;;;11.17;5.50;;;5.80;99.90;;;;;;4989699;28;20050;-22
2024/01/13 01:33:22;;;;;;;11.25;5.38;;;5.80;99.90;;;;;;4991499;28;20037;-23
2024/01/13 01:35:48;;;;;;;11.00;5.77;;;5.90;99.90;;;;;;4974012;28;20046;-22
2024/01/13 01:38:13;;;;;;;13.50;6.32;;;5.90;99.90;;;;;;4993686;28;20081;-21
2024/01/13 01:40:41;;;;;;;10.57;5.57;;;5.80;99.90;;;;;;4991944;28;20504;-22
2024/01/13 01:43:07;;;;;;;12.65;6.40;;;5.90;99.90;;;;;;4988730;28;20558;-22
2024/01/13 01:45:32;;;;;;;10.15;5.18;;;5.90;99.90;;;;;;4987074;28;20038;-23
2024/01/13 01:48:01;;;;;;;9.93;5.53;;;5.90;99.90;;;;;;4990579;28;20264;-22
2024/01/13 01:50:27;;;;;;;10.35;5.43;;;5.90;99.90;;;;;;4989178;28;20034;-22
2024/01/13 01:52:53;;;;;;;10.68;5.43;;;5.90;99.90;;;;;;4990271;28;20346;-26
2024/01/13 01:55:19;;;;;;;9.47;5.60;;;5.90;99.90;;;;;;4978623;28;20273;-22
2024/01/13 01:57:45;;;;;;;9.85;5.57;;;5.90;99.90;;;;;;4988829;28;20033;-25
2024/01/13 02:00:11;;;;;;;10.20;5.20;;;5.80;99.90;;;;;;4990484;28;20046;-24
2024/01/13 02:02:37;;;;;;;9.98;5.40;;;5.90;99.90;;;;;;4988550;28;20046;-24
2024/01/13 02:05:03;;;;;;;9.75;5.38;;;5.90;99.90;;;;;;4991728;28;20044;-27
2024/01/13 02:07:31;;;;;;;10.27;5.22;;;5.90;99.90;;;;;;4991759;28;20038;-22
2024/01/13 02:09:56;;;;;;;10.35;5.63;;;5.90;99.90;;;;;;4992727;28;20266;-23
2024/01/13 02:12:22;;;;;;;9.47;5.23;;;5.90;99.90;;;;;;4994372;28;20041;-22
2024/01/13 02:14:48;;;;;;;10.10;5.00;;;5.90;99.90;;;;;;4958532;28;20342;-20
2024/01/13 02:17:14;;;;;;;8.73;4.77;;;5.90;99.90;;;;;;4986676;28;20067;-20
2024/01/13 02:19:39;;;;;;;8.75;4.72;;;5.90;99.90;;;;;;4989453;28;20033;-19
2024/01/13 02:22:05;;;;;;;10.30;4.50;;;5.90;99.90;;;;;;4976393;28;20053;-19
2024/01/13 02:24:31;;;;;;;8.63;4.72;;;5.90;99.90;;;;;;4989520;28;20101;-19
2024/01/13 02:26:57;;;;;;;8.53;4.63;;;5.90;99.90;;;;;;4991177;28;20065;-22
2024/01/13 02:29:22;;;;;;;10.45;5.35;;;5.90;99.90;;;;;;4992269;28;20200;-20
2024/01/13 02:31:48;;;;;;;9.40;4.70;;;5.90;99.90;;;;;;4992357;28;20230;-20
2024/01/13 02:34:14;;;;;;;9.68;4.75;;;5.90;99.90;;;;;;4993074;28;20455;-21
2024/01/13 02:36:39;;;;;;;8.63;4.77;;;5.80;99.90;;;;;;4992285;28;20030;-20
2024/01/13 02:39:06;;;;;;;8.45;4.70;;;5.90;99.90;;;;;;4988511;28;20039;-20
2024/01/13 02:41:32;;;;;;;8.03;4.30;;;5.90;99.90;;;;;;4973105;28;20038;-19
2024/01/13 02:43:58;;;;;;;7.78;4.40;;;5.90;99.90;;;;;;4990822;28;20044;-20
2024/01/13 02:46:23;;;;;;;8.23;4.57;;;5.90;99.90;;;;;;4976525;28;20343;-22
2024/01/13 02:48:54;;;;;;;7.75;3.75;;;5.90;99.90;;;;;;4986301;28;20245;-23
2024/01/13 02:51:20;;;;;;;8.35;4.60;;;5.90;99.90;;;;;;4992249;28;20046;-23
2024/01/13 02:53:46;;;;;;;8.57;4.53;;;5.90;99.90;;;;;;4989390;28;20061;-22
2024/01/13 02:56:12;;;;;;;8.93;4.50;;;5.90;99.90;;;;;;4989150;28;20084;-19
2024/01/13 02:58:38;;;;;;;9.00;4.40;;;5.90;99.90;;;;;;4993097;28;20345;-19
2024/01/13 03:01:06;;;;;;;9.63;4.50;;;6.00;99.90;;;;;;4978639;28;20125;-20
2024/01/13 03:03:34;;;;;;;7.25;3.88;;;5.90;99.90;;;;;;4989734;28;20312;-19
2024/01/13 03:06:00;;;;;;;6.85;3.80;;;5.90;99.90;;;;;;4990590;28;20050;-19
2024/01/13 03:08:26;;;;;;;6.63;3.97;;;5.90;99.90;;;;;;4988220;28;20292;-19
2024/01/13 03:10:51;;;;;;;6.23;3.60;;;5.90;99.90;;;;;;4994477;28;20233;-19
2024/01/13 03:13:17;;;;;;;7.68;4.00;;;5.90;99.90;;;;;;4989078;28;20361;-20
2024/01/13 03:15:43;;;;;;;7.80;3.47;;;5.90;99.90;;;;;;4990581;28;20354;-19
2024/01/13 03:18:09;;;;;;;7.10;3.72;;;5.90;99.90;;;;;;4990077;28;20593;-19
2024/01/13 03:20:34;;;;;;;6.93;3.97;;;5.90;99.90;;;;;;4990520;28;20209;-19
2024/01/13 03:23:00;;;;;;;7.13;3.88;;;5.90;99.90;;;;;;4974720;28;20407;-21
2024/01/13 03:25:26;;;;;;;6.30;3.37;;;7.10;99.90;;;;;;4989013;28;20045;-22
2024/01/13 03:27:52;;;;;;;5.90;3.50;;;5.90;99.90;;;;;;4988906;28;20265;-22
2024/01/13 03:30:18;;;;;;;6.47;3.70;;;5.90;99.90;;;;;;4988320;28;20192;-24
2024/01/13 03:32:44;;;;;;;5.90;2.95;;;5.90;99.90;;;;;;4992647;28;20370;-22
2024/01/13 03:35:10;;;;;;;6.70;3.65;;;5.90;99.90;;;;;;4973210;28;21732;-22
2024/01/13 03:37:36;;;;;;;4.77;2.87;;;5.90;99.90;;;;;;4990893;28;20033;-24
2024/01/13 03:40:02;;;;;;;5.65;3.30;;;5.90;99.90;;;;;;4991321;28;20286;-24
2024/01/13 03:42:28;;;;;;;7.43;3.30;;;5.90;99.90;;;;;;4987690;28;20452;-22
2024/01/13 03:44:54;;;;;;;5.25;3.17;;;5.90;99.90;;;;;;4971895;28;20397;-23
2024/01/13 03:47:22;;;;;;;7.60;3.40;;;5.90;99.90;;;;;;4990005;28;20383;-27
2024/01/13 03:49:48;;;;;;;5.57;3.05;;;5.90;99.90;;;;;;4977132;28;20038;-21
2024/01/13 03:52:13;;;;;;;6.35;3.10;;;5.90;99.90;;;;;;4948145;28;20042;-23
2024/01/13 03:54:39;;;;;;;5.93;3.03;;;5.90;99.90;;;;;;4996827;28;20038;-22
2024/01/13 03:57:05;;;;;;;5.03;3.10;;;5.90;99.90;;;;;;4993804;28;20101;-22
2024/01/13 03:59:30;;;;;;;5.40;3.10;;;5.90;99.90;;;;;;4996229;28;20415;-23
2024/01/13 04:01:56;;;;;;;5.72;3.08;;;5.90;99.90;;;;;;4993715;28;20364;-22
2024/01/13 04:04:22;;;;;;;6.17;2.97;;;5.90;99.90;;;;;;4992087;28;20038;-23
2024/01/13 04:06:48;;;;;;;4.65;2.70;;;5.90;99.90;;;;;;4994752;28;20081;-23
2024/01/13 04:09:14;;;;;;;6.10;3.30;;;5.90;99.90;;;;;;4997015;28;20038;-23
2024/01/13 04:11:39;;;;;;;5.00;2.70;;;5.90;99.90;;;;;;4962214;28;20957;-23
2024/01/13 04:14:05;;;;;;;6.13;3.55;;;5.90;99.90;;;;;;4993160;28;20338;-22
2024/01/13 04:16:31;;;;;;;4.53;2.80;;;5.90;99.90;;;;;;4995043;28;20374;-19
2024/01/13 04:18:57;;;;;;;5.63;2.78;;;5.90;99.90;;;;;;4994229;28;20334;-20
2024/01/13 04:21:22;;;;;;;6.30;3.10;;;5.90;99.90;;;;;;4990710;28;20050;-19
2024/01/13 04:23:48;;;;;;;5.18;2.60;;;5.90;99.90;;;;;;4974419;28;20078;-19
2024/01/13 04:26:15;;;;;;;4.38;3.00;;;5.90;99.90;;;;;;4980505;28;20046;-19
2024/01/13 04:28:40;;;;;;;5.33;2.70;;;5.90;99.90;;;;;;4977717;28;20041;-20
2024/01/13 04:31:07;;;;;;;5.53;3.00;;;5.90;99.90;;;;;;4975197;28;20034;-19
2024/01/13 04:33:32;;;;;;;5.88;3.28;;;5.90;99.90;;;;;;4974912;28;20035;-20
2024/01/13 04:35:58;;;;;;;5.13;2.77;;;5.90;99.90;;;;;;4977618;28;20039;-23
2024/01/13 04:38:24;;;;;;;6.47;3.45;;;5.90;99.90;;;;;;4976007;28;20097;-23
2024/01/13 04:40:50;;;;;;;6.63;3.47;;;5.90;99.90;;;;;;4975971;28;20413;-22
2024/01/13 04:43:15;;;;;;;4.85;3.10;;;5.90;99.90;;;;;;4977282;28;20148;-25
2024/01/13 04:45:41;;;;;;;5.90;3.17;;;5.90;99.90;;;;;;4976016;28;20042;-22
2024/01/13 04:48:07;;;;;;;5.43;2.85;;;5.90;99.90;;;;;;4973134;28;20046;-22
2024/01/13 04:50:32;;;;;;;5.03;3.00;;;6.00;99.90;;;;;;4974561;28;20069;-22
2024/01/13 04:52:58;;;;;;;5.22;3.13;;;5.90;99.90;;;;;;4974631;28;20472;-22
2024/01/13 04:55:24;;;;;;;5.03;2.80;;;6.00;99.90;;;;;;4937004;28;20054;-22
2024/01/13 04:57:50;;;;;;;5.55;2.90;;;5.90;99.90;;;;;;4973459;28;20022;-21
2024/01/13 05:00:16;;;;;;;5.70;3.10;;;5.90;99.90;;;;;;4970778;28;20439;-22
2024/01/13 05:02:42;;;;;;;4.60;2.70;;;6.00;99.90;;;;;;4970103;28;20043;-21
2024/01/13 05:05:07;;;;;;;5.25;2.85;;;5.90;99.90;;;;;;4971349;28;20094;-23
2024/01/13 05:07:36;;;;;;;4.93;2.60;;;6.00;99.90;;;;;;4972758;28;20085;-22
2024/01/13 05:10:02;;;;;;;5.43;3.03;;;6.00;99.90;;;;;;4969889;28;20031;-22
2024/01/13 05:12:28;;;;;;;5.68;3.13;;;5.90;99.90;;;;;;4971751;28;20042;-23
2024/01/13 05:14:54;;;;;;;5.87;2.73;;;6.00;99.90;;;;;;4973934;28;20039;-22
2024/01/13 05:17:19;;;;;;;5.85;3.15;;;6.00;99.90;;;;;;4973404;28;20239;-24
2024/01/13 05:19:45;;;;;;;6.53;3.10;;;6.10;99.90;;;;;;4975306;28;20094;-22
2024/01/13 05:22:11;;;;;;;6.55;3.30;;;6.00;99.90;;;;;;4991409;28;20320;-22
2024/01/13 05:24:36;;;;;;;5.87;2.80;;;6.00;99.90;;;;;;4989676;28;20153;-23
2024/01/13 05:27:02;;;;;;;6.30;3.10;;;6.00;99.90;;;;;;4992084;28;20037;-20
2024/01/13 05:29:28;;;;;;;5.60;3.00;;;6.00;99.90;;;;;;4987892;28;20262;-19
2024/01/13 05:31:54;;;;;;;5.20;2.97;;;6.00;99.90;;;;;;4989098;28;20297;-19
2024/01/13 05:34:19;;;;;;;6.47;2.90;;;6.00;99.90;;;;;;4977553;28;20038;-19
2024/01/13 05:36:47;;;;;;;7.03;3.60;;;6.00;99.90;;;;;;4976407;28;20034;-20
2024/01/13 05:39:12;;;;;;;6.30;3.05;;;6.00;99.90;;;;;;4988439;28;20061;-20
2024/01/13 05:41:38;;;;;;;6.17;3.53;;;6.00;99.90;;;;;;4976504;28;20042;-19
2024/01/13 05:44:04;;;;;;;7.07;3.42;;;6.00;99.90;;;;;;4977922;28;20038;-20
2024/01/13 05:46:30;;;;;;;5.53;2.90;;;6.00;99.90;;;;;;4990550;28;20042;-21
2024/01/13 05:48:55;;;;;;;4.90;2.78;;;6.00;99.90;;;;;;4987529;28;20369;-22
2024/01/13 05:51:21;;;;;;;7.23;3.90;;;6.00;99.90;;;;;;4992581;28;20030;-23
2024/01/13 05:53:47;;;;;;;6.43;3.00;;;6.00;99.90;;;;;;4990283;28;20109;-22
2024/01/13 05:56:12;;;;;;;5.70;3.00;;;6.00;99.90;;;;;;4992487;28;20034;-23
2024/01/13 05:58:39;;;;;;;5.07;2.63;;;6.00;99.90;;;;;;4990655;28;20326;-22
2024/01/13 06:01:05;;;;;;;6.67;3.03;;;6.00;99.90;;;;;;4990072;28;20089;-22
2024/01/13 06:03:32;;;;;;;5.65;3.45;;;6.00;99.90;;;;;;4991128;28;20038;-23
2024/01/13 06:05:58;;;;;;;5.35;2.72;;;6.00;99.90;;;;;;4976044;28;20042;-22
2024/01/13 06:08:24;;;;;;;5.67;2.90;;;6.00;99.90;;;;;;4981054;28;20019;-22
2024/01/13 06:10:50;;;;;;;5.15;2.75;;;6.00;99.90;;;;;;4990253;28;20036;-23
2024/01/13 06:13:16;;;;;;;5.33;2.60;;;6.00;99.90;;;;;;4993565;28;20057;-24
2024/01/13 06:15:41;;;;;;;5.60;2.80;;;6.00;99.90;;;;;;4992019;28;20329;-24
2024/01/13 06:18:07;;;;;;;5.20;2.90;;;6.00;99.90;;;;;;4976345;28;20053;-22
2024/01/13 06:20:33;;;;;;;4.60;2.50;;;6.10;99.90;;;;;;4992670;28;20286;-22
2024/01/13 06:22:59;;;;;;;7.03;2.75;;;6.10;99.90;;;;;;4989916;28;20346;-22
2024/01/13 06:25:24;;;;;;;5.77;2.87;;;6.00;99.90;;;;;;4993610;28;20445;-23
2024/01/13 06:27:50;;;;;;;4.78;2.80;;;6.00;99.90;;;;;;4994149;28;20204;-22
2024/01/13 06:30:16;;;;;;;5.53;2.90;;;6.00;99.90;;;;;;4989815;28;20057;-21
2024/01/13 06:32:42;;;;;;;5.18;2.65;;;6.00;99.90;;;;;;4990213;28;20033;-25
2024/01/13 06:35:08;;;;;;;5.10;2.60;;;6.00;99.90;;;;;;4993483;28;20042;-23
2024/01/13 06:37:33;;;;;;;4.97;2.30;;;6.00;99.90;;;;;;4989554;28;20057;-23
2024/01/13 06:39:59;;;;;;;4.43;2.33;;;6.10;99.90;;;;;;4992187;28;20058;-22
2024/01/13 06:42:25;;;;;;;5.32;2.75;;;6.00;99.90;;;;;;4992128;28;20038;-22
2024/01/13 06:44:51;;;;;;;4.73;2.70;;;5.90;99.90;;;;;;4991035;28;20047;-22
2024/01/13 06:47:17;;;;;;;6.03;2.50;;;6.00;99.90;;;;;;4973088;28;20053;-22
2024/01/13 06:49:43;;;;;;;4.07;2.55;;;6.00;99.90;;;;;;4970556;28;20042;-22
2024/01/13 06:52:09;;;;;;;4.87;2.57;;;6.00;99.90;;;;;;4974434;28;20068;-22
2024/01/13 06:54:35;;;;;;;5.85;2.80;;;6.00;99.90;;;;;;4994440;28;20038;-23
2024/01/13 06:57:00;;;;;;;6.07;2.88;;;6.00;99.90;;;;;;4995660;28;20322;-21
2024/01/13 06:59:26;;;;;;;6.00;2.77;;;6.00;99.90;;;;;;4990065;28;20077;-20
2024/01/13 07:01:52;;;;;;;5.30;2.83;;;6.00;99.90;;;;;;4993055;28;20038;-20
2024/01/13 07:04:18;;;;;;;5.97;2.77;;;6.00;99.90;;;;;;4989679;28;20541;-20
2024/01/13 07:06:43;;;;;;;4.78;2.58;;;6.00;99.90;;;;;;4976345;28;20223;-19
2024/01/13 07:09:09;;;;;;;5.80;2.77;;;6.00;99.90;;;;;;4990184;28;20169;-19
2024/01/13 07:11:35;;;;;;;7.53;3.30;;;6.00;99.90;;;;;;4973424;28;20218;-21
2024/01/13 07:14:00;;;;;;;5.33;2.50;;;6.00;99.90;;;;;;4978178;28;20035;-19
2024/01/13 07:16:28;;;;;;;6.78;2.83;;;6.00;99.90;;;;;;4990599;28;20034;-21
2024/01/13 07:18:53;;;;;;;8.13;3.73;;;6.00;99.90;;;;;;4989176;28;20049;-20
2024/01/13 07:21:19;;;;;;;7.85;3.75;;;6.00;99.90;;;;;;4991436;28;20659;-21
2024/01/13 07:23:45;;;;;;;6.15;2.90;;;6.00;99.90;;;;;;4977135;28;20106;-20
2024/01/13 07:26:11;;;;;;;10.50;4.70;;;6.00;99.90;;;;;;4992207;28;20034;-18
2024/01/13 07:28:37;;;;;;;8.27;4.20;;;6.00;99.90;;;;;;4977321;28;20046;-19
2024/01/13 07:31:03;;;;;;;7.82;4.00;;;5.90;99.90;;;;;;4995866;28;20034;-20
2024/01/13 07:33:28;;;;;;;8.90;4.70;;;5.90;99.90;;;;;;4984660;28;20042;-19
2024/01/13 07:35:54;;;;;;;9.63;4.70;;;6.00;99.90;;;;;;4993271;28;20262;-20
2024/01/13 07:38:20;;;;;;;9.63;4.80;;;5.90;99.90;;;;;;4992951;28;20519;-20
2024/01/13 07:40:46;;;;;;;7.82;4.30;;;6.00;99.90;;;;;;4992322;28;20176;-20
2024/01/13 07:43:12;;;;;;;8.93;4.35;;;5.90;99.90;;;;;;4994355;28;20094;-20
2024/01/13 07:45:38;;;;;;;9.10;4.35;;;5.90;99.90;;;;;;4995842;28;20380;-20
2024/01/13 07:48:04;;;;;;;6.90;3.33;;;5.90;99.90;;;;;;4994134;28;20034;-24
2024/01/13 07:50:30;;;;;;;7.72;4.10;;;5.90;99.90;;;;;;4992765;28;20110;-21
2024/01/13 07:52:55;;;;;;;10.20;5.27;;;5.90;99.90;;;;;;4987670;28;20030;-23
2024/01/13 07:55:21;;;;;;;8.98;4.22;;;5.90;99.90;;;;;;4966059;28;20357;-21
2024/01/13 07:57:47;;;;;;;7.93;3.90;;;5.90;99.90;;;;;;4990269;28;20050;-20
2024/01/13 08:00:13;;;;;;;6.53;3.33;;;4.80;99.90;;;;;;4993416;28;20030;-19
2024/01/13 08:02:39;;;;;;;9.85;3.80;;;5.90;99.90;;;;;;4995048;28;20291;-19
2024/01/13 08:05:05;;;;;;;8.33;4.30;;;5.90;99.90;;;;;;4993924;28;20030;-20
2024/01/13 08:07:30;;;;;;;12.52;5.82;;;5.90;99.90;;;;;;4990628;28;20030;-20
2024/01/13 08:09:56;;;;;;;13.75;5.63;;;5.90;99.90;;;;;;4994220;28;20034;-19
2024/01/13 08:12:22;;;;;;;9.80;4.43;;;5.90;99.90;;;;;;4994635;28;20030;-19
2024/01/13 08:14:48;;;;;;;11.13;5.15;;;6.00;99.90;;;;;;4994407;28;20073;-21
2024/01/13 08:17:14;;;;;;;8.77;4.07;;;6.00;99.90;;;;;;4991191;28;20045;-20
2024/01/13 08:19:39;;;;;;;11.70;5.13;;;5.90;99.90;;;;;;4993870;28;20045;-20
2024/01/13 08:22:06;;;;;;;9.63;4.77;;;5.90;99.90;;;;;;4993250;28;20113;-20
2024/01/13 08:24:32;;;;;;;13.07;5.67;;;6.00;99.90;;;;;;4976434;28;20364;-19
2024/01/13 08:26:57;;;;;;;11.68;5.32;;;6.00;99.90;;;;;;4993301;28;20038;-20
2024/01/13 08:29:23;;;;;;;10.60;4.97;;;5.90;99.90;;;;;;4983819;28;20238;-21
2024/01/13 08:31:50;;;;;;;9.93;4.80;;;6.00;99.90;;;;;;4995361;28;20169;-20
2024/01/13 08:34:16;;;;;;;9.68;5.20;;;8.80;99.90;;;;;;4978152;28;20038;-19
2024/01/13 08:36:42;;;;;;;11.05;5.93;;;6.00;99.90;;;;;;4992148;28;20105;-20
2024/01/13 08:39:08;;;;;;;10.97;5.03;;;6.00;99.90;;;;;;4990622;28;20373;-19
2024/01/13 08:41:34;;;;;;;9.20;4.55;;;6.10;99.90;;;;;;4990944;28;20034;-19
2024/01/13 08:44:00;;;;;;;11.23;5.30;;;6.00;99.90;;;;;;4990504;28;20057;-19
2024/01/13 08:46:26;;;;;;;9.90;4.63;;;6.00;99.90;;;;;;4989647;28;20345;-20
2024/01/13 08:48:52;;;;;;;9.73;4.90;;;6.00;99.90;;;;;;4989608;28;20034;-19
2024/01/13 08:51:18;;;;;;;10.80;5.25;;;6.00;99.90;;;;;;4989021;28;20100;-19
2024/01/13 08:53:45;;;;;;;9.53;4.20;;;6.00;99.90;;;;;;4987534;28;20029;-20
2024/01/13 08:56:11;;;;;;;9.93;4.53;;;6.00;99.90;;;;;;4996809;28;20064;-19
2024/01/13 08:58:38;;;;;;;9.18;4.18;;;6.00;99.90;;;;;;4994873;28;20050;-20
2024/01/13 09:01:04;;;;;;;9.23;4.57;;;6.00;99.90;;;;;;4976391;28;20109;-19
2024/01/13 09:03:30;;;;;;;8.13;4.15;;;6.10;99.90;;;;;;4992510;28;20076;-20
2024/01/13 09:05:56;;;;;;;11.98;5.25;;;6.00;99.90;;;;;;4964096;28;20026;-20
2024/01/13 09:08:22;;;;;;;10.95;4.72;;;6.10;99.90;;;;;;4992596;28;20090;-22
2024/01/13 09:10:47;;;;;;;9.60;4.53;;;6.10;99.90;;;;;;4978251;28;20069;-21
2024/01/13 09:13:13;;;;;;;9.88;4.35;;;6.10;99.90;;;;;;4988968;28;20045;-21
2024/01/13 09:15:39;;;;;;;11.73;5.23;;;6.10;99.90;;;;;;4977880;28;20045;-23
2024/01/13 09:18:06;;;;;;;10.48;4.78;;;6.10;99.90;;;;;;4996549;28;20034;-19
2024/01/13 09:20:32;;;;;;;11.18;4.82;;;6.10;99.90;;;;;;4993563;28;20110;-19
2024/01/13 09:22:58;;;;;;;11.25;4.78;;;6.10;99.90;;;;;;4958531;28;20037;-20
2024/01/13 09:25:24;;;;;;;13.00;5.53;;;6.10;99.90;;;;;;4987448;28;20207;-19
2024/01/13 09:27:51;;;;;;;14.40;6.53;;;6.10;99.90;;;;;;4993399;28;20033;-19
2024/01/13 09:30:17;;;;;;;12.53;5.53;;;6.10;99.90;;;;;;4992983;28;20133;-20
2024/01/13 09:32:43;;;;;;;12.63;5.88;;;6.10;99.90;;;;;;4992519;28;20223;-20
2024/01/13 09:35:08;;;;;;;14.50;6.13;;;6.10;99.90;;;;;;4978974;28;20065;-19
2024/01/13 09:37:35;;;;;;;12.88;4.97;;;6.10;99.90;;;;;;4982538;28;20156;-22
2024/01/13 09:40:01;;;;;;;14.93;5.82;;;6.10;99.90;;;;;;4988736;28;20088;-21
2024/01/13 09:42:42;;;;;;;11.00;5.17;;;6.10;99.90;;;;;;4992190;28;20350;-20
2024/01/13 09:45:11;;;;;;;13.48;5.78;;;6.10;99.90;;;;;;4990085;28;20050;-20
2024/01/13 09:47:37;;;;;;;10.60;5.03;;;6.20;99.90;;;;;;4993996;28;20033;-20
2024/01/13 09:50:04;;;;;;;11.85;5.00;;;6.10;99.90;;;;;;4983039;28;20192;-20
2024/01/13 09:52:31;;;;;;;11.13;4.93;;;6.10;99.90;;;;;;4987790;28;20065;-19
2024/01/13 09:55:03;;;;;;;9.68;4.55;;;6.10;99.90;;;;;;4988959;28;20548;-21
2024/01/13 09:57:28;;;;;;;12.43;5.68;;;6.10;99.90;;;;;;4982652;28;20234;-21
2024/01/13 09:59:54;;;;;;;11.02;5.00;;;6.20;99.90;;;;;;4981837;28;20038;-21
2024/01/13 10:02:20;;;;;;;12.53;5.63;;;6.20;99.90;;;;;;4985974;28;20034;-21
2024/01/13 10:04:46;;;;;;;12.75;5.72;;;6.20;99.90;;;;;;4974519;28;20042;-21
2024/01/13 10:07:12;;;;;;;11.23;4.85;;;6.20;99.90;;;;;;4969005;28;20375;-20
2024/01/13 10:09:38;;;;;;;11.98;5.10;;;6.10;99.90;;;;;;4971746;28;20097;-20
2024/01/13 10:12:06;;;;;;;12.87;5.30;;;6.20;99.90;;;;;;4983779;28;20045;-20
2024/01/13 10:14:32;;;;;;;13.20;5.53;;;6.10;99.90;;;;;;4988273;28;20248;-26
2024/01/13 10:17:03;;;;;;;12.35;4.97;;;6.10;99.90;;;;;;4975232;28;20239;-19
2024/01/13 10:19:29;;;;;;;15.45;6.30;;;6.10;99.90;;;;;;4989564;28;20441;-19
2024/01/13 10:21:55;;;;;;;13.02;5.53;;;6.10;99.90;;;;;;4986710;28;20108;-20
2024/01/13 10:24:21;;;;;;;11.83;5.53;;;4.50;99.90;;;;;;4986195;28;20544;-20
2024/01/13 10:26:46;;;;;;;12.98;5.78;;;6.10;99.90;;;;;;4991128;28;20140;-21
2024/01/13 10:29:13;;;;;;;9.97;4.77;;;6.10;99.90;;;;;;4990877;28;20046;-23
2024/01/13 10:31:39;;;;;;;12.80;5.70;;;6.10;99.90;;;;;;4994372;28;20037;-21
2024/01/13 10:34:11;;;;;;;10.70;4.90;;;6.10;99.90;;;;;;4986089;28;20125;-22
2024/01/13 10:36:38;;;;;;;11.77;5.67;;;6.10;99.90;;;;;;4966927;28;20250;-22
2024/01/13 10:39:04;;;;;;;13.70;5.78;;;6.10;99.90;;;;;;4985575;28;20045;-23
2024/01/13 10:41:30;;;;;;;13.65;6.30;;;6.10;99.90;;;;;;4989007;28;20089;-22
2024/01/13 10:43:58;;;;;;;10.82;5.43;;;6.10;99.90;;;;;;4990088;28;20038;-21
2024/01/13 10:46:26;;;;;;;15.07;6.50;;;6.10;99.90;;;;;;4974444;28;20052;-22
2024/01/13 10:48:59;;;;;;;12.25;5.47;;;6.10;99.90;;;;;;4987382;28;20314;-22
2024/01/13 10:51:37;;;;;;;14.23;5.75;;;6.10;99.90;;;;;;4989856;28;20026;-22
2024/01/13 10:54:04;;;;;;;12.95;5.70;;;6.10;99.90;;;;;;4980922;28;20086;-22
2024/01/13 10:56:31;;;;;;;12.73;5.82;;;6.10;99.90;;;;;;4986290;28;20342;-23
2024/01/13 10:58:58;;;;;;;15.20;6.93;;;6.10;99.90;;;;;;4982108;28;20034;-22
2024/01/13 11:01:25;;;;;;;12.77;5.63;;;6.10;99.90;;;;;;4990845;28;20038;-21
2024/01/13 11:03:53;;;;;;;15.68;6.85;;;6.20;99.90;;;;;;4990182;28;20030;-24
2024/01/13 11:06:19;;;;;;;14.75;6.78;;;6.20;99.90;;;;;;4988798;28;20042;-22
2024/01/13 11:08:45;;;;;;;15.55;6.82;;;6.20;99.90;;;;;;4981515;28;20042;-22
2024/01/13 11:11:16;;;;;;;15.73;6.83;;;6.20;99.90;;;;;;4987671;28;20126;-22
2024/01/13 11:13:47;;;;;;;15.75;6.53;;;6.20;99.90;;;;;;4988738;28;20093;-24
2024/01/13 11:16:15;;;;;;;19.23;7.18;;;6.20;99.90;;;;;;4993873;28;20110;-21
2024/01/13 11:18:46;;;;;;;13.30;5.85;;;6.20;99.90;;;;;;4973945;28;20031;-21
2024/01/13 11:21:13;;;;;;;14.90;6.63;;;6.20;99.90;;;;;;4990646;28;20051;-23
2024/01/13 11:24:07;;;;;;;14.27;5.90;;;6.20;99.90;;;;;;4990472;28;20316;-21
2024/01/13 11:26:43;;;;;;;13.68;6.82;;;6.20;99.90;;;;;;4990358;28;20042;-21
2024/01/13 11:29:20;;;;;;;12.68;6.28;;;6.20;99.90;;;;;;4957522;28;20046;-23
2024/01/13 11:31:53;;;;;;;19.48;6.45;;;6.20;99.90;;;;;;4988996;28;20039;-22
2024/01/13 11:34:19;;;;;;;13.68;6.00;;;6.20;99.90;;;;;;4991627;28;20079;-21
2024/01/13 11:36:48;;;;;;;12.00;5.67;;;6.20;99.90;;;;;;4960687;28;20054;-20
2024/01/13 11:39:15;;;;;;;13.55;6.20;;;6.20;99.90;;;;;;4971283;28;20385;-18
2024/01/13 11:41:50;;;;;;;12.57;6.05;;;6.20;99.90;;;;;;4990557;28;20093;-19
2024/01/13 11:44:24;;;;;;;12.35;5.75;;;6.20;99.90;;;;;;4991779;28;20098;-20
2024/01/13 11:47:10;;;;;;;14.02;5.85;;;6.20;99.90;;;;;;4992197;28;20043;-21
2024/01/13 11:49:43;;;;;;;13.37;5.70;;;6.20;99.90;;;;;;4988375;28;20104;-21
2024/01/13 11:52:13;;;;;;;14.85;6.85;;;6.20;99.90;;;;;;4973392;28;20046;-19
2024/01/13 11:54:40;;;;;;;12.82;6.13;;;6.20;99.90;;;;;;4973875;28;20046;-19
2024/01/13 11:57:11;;;;;;;11.75;5.75;;;6.20;99.90;;;;;;4971816;28;20023;-20
2024/01/13 11:59:38;;;;;;;12.43;5.75;;;6.20;99.90;;;;;;4972372;28;20480;-20
2024/01/13 12:02:04;;;;;;;10.87;5.17;;;6.20;99.90;;;;;;4984564;28;20054;-19
2024/01/13 12:04:32;;;;;;;13.50;6.20;;;6.30;99.90;;;;;;4987317;28;20308;-20
2024/01/13 12:06:59;;;;;;;12.48;6.22;;;6.20;99.90;;;;;;4973893;28;20588;-20
2024/01/13 12:09:27;;;;;;;11.55;5.47;;;6.20;99.90;;;;;;4978136;28;20085;-19
2024/01/13 12:12:00;;;;;;;13.70;5.88;;;6.20;99.90;;;;;;4993354;28;20033;-20
2024/01/13 12:14:28;;;;;;;12.50;5.63;;;6.20;99.90;;;;;;4983342;28;20401;-20
2024/01/13 12:16:58;;;;;;;14.15;6.55;;;6.20;99.90;;;;;;4989462;28;20042;-19
2024/01/13 12:19:26;;;;;;;15.35;6.75;;;6.20;99.90;;;;;;4982813;28;20648;-19
2024/01/13 12:21:53;;;;;;;11.70;5.40;;;6.20;99.90;;;;;;4976607;28;20041;-20
2024/01/13 12:24:29;;;;;;;13.10;6.03;;;6.20;99.90;;;;;;4986772;28;20034;-20
2024/01/13 12:26:55;;;;;;;14.97;6.97;;;6.20;99.90;;;;;;4991509;28;20050;-19
2024/01/13 12:29:25;;;;;;;12.63;5.75;;;6.20;99.90;;;;;;4976292;28;20049;-21
2024/01/13 12:31:53;;;;;;;13.30;5.80;;;6.20;99.90;;;;;;4991102;28;20548;-21
2024/01/13 12:34:20;;;;;;;13.60;5.93;;;6.20;99.90;;;;;;4994219;28;20346;-20
2024/01/13 12:36:46;;;;;;;11.65;5.72;;;6.20;99.90;;;;;;4992899;28;20234;-19
2024/01/13 12:39:12;;;;;;;13.10;5.93;;;6.10;99.90;;;;;;4990580;28;20105;-20
2024/01/13 12:41:38;;;;;;;12.75;6.15;;;6.10;99.90;;;;;;4993500;28;20836;-20
2024/01/13 12:44:05;;;;;;;12.02;5.65;;;6.10;99.90;;;;;;4992795;28;20049;-20
2024/01/13 12:46:37;;;;;;;12.98;6.10;;;6.10;99.90;;;;;;4993019;28;20304;-20
2024/01/13 12:49:16;;;;;;;13.33;5.70;;;6.20;99.90;;;;;;4976053;28;20046;-22